sensor_id;sensor_type;location;lat;lon;timestamp;pressure;altitude;pressure_sealevel;temperature;humidity
28701;BME280;15877;52.344;16.790;2023-05-23T00:01:58;100476.54;;;18.26;54.18
28701;BME280;15877;52.344;16.790;2023-05-23T00:04:32;100465.21;;;18.17;54.12
28701;BME280;15877;52.344;16.790;2023-05-23T00:07:05;100467.65;;;18.22;54.26
28701;BME280;15877;52.344;16.790;2023-05-23T00:09:38;100467.02;;;18.22;54.15
28701;BME280;15877;52.344;16.790;2023-05-23T00:12:10;100465.84;;;18.20;54.34
28701;BME280;15877;52.344;16.790;2023-05-23T00:14:42;100448.33;;;18.09;54.43
28701;BME280;15877;52.344;16.790;2023-05-23T00:17:15;100460.66;;;18.14;54.08
28701;BME280;15877;52.344;16.790;2023-05-23T00:19:48;100461.17;;;18.10;54.48
28701;BME280;15877;52.344;16.790;2023-05-23T00:22:20;100460.45;;;18.10;54.40
28701;BME280;15877;52.344;16.790;2023-05-23T00:24:53;100458.77;;;18.08;54.24
28701;BME280;15877;52.344;16.790;2023-05-23T00:27:27;100455.27;;;18.06;54.80
28701;BME280;15877;52.344;16.790;2023-05-23T00:30:00;100458.79;;;18.06;54.29
28701;BME280;15877;52.344;16.790;2023-05-23T00:32:32;100457.98;;;18.06;54.36
28701;BME280;15877;52.344;16.790;2023-05-23T00:35:07;100451.98;;;18.04;54.77
28701;BME280;15877;52.344;16.790;2023-05-23T00:37:39;100457.08;;;18.01;54.72
28701;BME280;15877;52.344;16.790;2023-05-23T00:40:13;100451.30;;;18.00;54.90
28701;BME280;15877;52.344;16.790;2023-05-23T00:42:46;100451.55;;;17.98;55.22
28701;BME280;15877;52.344;16.790;2023-05-23T00:45:18;100450.84;;;17.96;55.07
28701;BME280;15877;52.344;16.790;2023-05-23T00:47:50;100450.85;;;17.95;54.81
28701;BME280;15877;52.344;16.790;2023-05-23T00:50:23;100446.87;;;17.91;54.80
28701;BME280;15877;52.344;16.790;2023-05-23T00:53:00;100453.54;;;17.89;54.76
28701;BME280;15877;52.344;16.790;2023-05-23T00:55:33;100450.13;;;17.85;54.88
28701;BME280;15877;52.344;16.790;2023-05-23T00:58:05;100448.63;;;17.82;55.08
28701;BME280;15877;52.344;16.790;2023-05-23T01:00:38;100448.02;;;17.79;54.90
28701;BME280;15877;52.344;16.790;2023-05-23T01:03:28;100448.58;;;17.78;54.84
28701;BME280;15877;52.344;16.790;2023-05-23T01:06:01;100449.14;;;17.76;54.73
28701;BME280;15877;52.344;16.790;2023-05-23T01:08:33;100448.14;;;17.72;54.97
28701;BME280;15877;52.344;16.790;2023-05-23T01:11:11;100451.11;;;17.71;54.91
28701;BME280;15877;52.344;16.790;2023-05-23T01:13:53;100453.85;;;17.69;54.90
28701;BME280;15877;52.344;16.790;2023-05-23T01:16:34;100455.22;;;17.69;54.96
28701;BME280;15877;52.344;16.790;2023-05-23T01:19:15;100448.66;;;17.66;54.90
28701;BME280;15877;52.344;16.790;2023-05-23T01:21:54;100446.17;;;17.64;55.01
28701;BME280;15877;52.344;16.790;2023-05-23T01:24:38;100446.98;;;17.63;55.07
28701;BME280;15877;52.344;16.790;2023-05-23T01:27:26;100448.13;;;17.61;55.31
28701;BME280;15877;52.344;16.790;2023-05-23T01:30:03;100444.77;;;17.58;55.30
28701;BME280;15877;52.344;16.790;2023-05-23T01:32:36;100440.77;;;17.57;55.42
28701;BME280;15877;52.344;16.790;2023-05-23T01:35:09;100441.83;;;17.55;55.29
28701;BME280;15877;52.344;16.790;2023-05-23T01:37:44;100442.15;;;17.55;55.35
28701;BME280;15877;52.344;16.790;2023-05-23T01:40:17;100433.64;;;17.55;55.45
28701;BME280;15877;52.344;16.790;2023-05-23T01:42:50;100431.23;;;17.52;55.60
28701;BME280;15877;52.344;16.790;2023-05-23T01:45:25;100430.21;;;17.51;55.76
28701;BME280;15877;52.344;16.790;2023-05-23T01:47:59;100425.80;;;17.49;55.63
28701;BME280;15877;52.344;16.790;2023-05-23T01:50:33;100419.48;;;17.48;55.33
28701;BME280;15877;52.344;16.790;2023-05-23T01:53:07;100418.04;;;17.47;55.28
28701;BME280;15877;52.344;16.790;2023-05-23T01:55:42;100417.88;;;17.46;55.64
28701;BME280;15877;52.344;16.790;2023-05-23T01:58:14;100415.29;;;17.46;55.68
28701;BME280;15877;52.344;16.790;2023-05-23T02:00:47;100405.14;;;17.38;55.76
28701;BME280;15877;52.344;16.790;2023-05-23T02:03:20;100412.19;;;17.41;55.69
28701;BME280;15877;52.344;16.790;2023-05-23T02:05:52;100411.77;;;17.40;55.71
28701;BME280;15877;52.344;16.790;2023-05-23T02:08:25;100411.31;;;17.39;56.00
28701;BME280;15877;52.344;16.790;2023-05-23T02:10:59;100407.47;;;17.37;56.25
28701;BME280;15877;52.344;16.790;2023-05-23T02:13:31;100410.13;;;17.36;56.03
28701;BME280;15877;52.344;16.790;2023-05-23T02:16:04;100405.64;;;17.35;55.79
28701;BME280;15877;52.344;16.790;2023-05-23T02:18:37;100404.36;;;17.35;55.87
28701;BME280;15877;52.344;16.790;2023-05-23T02:21:09;100400.04;;;17.32;55.87
28701;BME280;15877;52.344;16.790;2023-05-23T02:23:41;100397.25;;;17.30;56.21
28701;BME280;15877;52.344;16.790;2023-05-23T02:26:14;100393.95;;;17.29;56.13
28701;BME280;15877;52.344;16.790;2023-05-23T02:28:46;100396.77;;;17.27;56.15
28701;BME280;15877;52.344;16.790;2023-05-23T02:31:19;100391.66;;;17.25;56.00
28701;BME280;15877;52.344;16.790;2023-05-23T02:33:52;100391.44;;;17.23;56.03
28701;BME280;15877;52.344;16.790;2023-05-23T02:36:24;100392.40;;;17.22;56.38
28701;BME280;15877;52.344;16.790;2023-05-23T02:38:58;100389.29;;;17.20;56.25
28701;BME280;15877;52.344;16.790;2023-05-23T02:41:30;100388.40;;;17.19;56.21
28701;BME280;15877;52.344;16.790;2023-05-23T02:44:03;100393.23;;;17.18;56.33
28701;BME280;15877;52.344;16.790;2023-05-23T02:46:35;100382.85;;;17.09;56.49
28701;BME280;15877;52.344;16.790;2023-05-23T02:49:07;100384.12;;;17.09;56.63
28701;BME280;15877;52.344;16.790;2023-05-23T02:51:40;100390.91;;;17.16;56.59
28701;BME280;15877;52.344;16.790;2023-05-23T02:54:12;100373.14;;;17.09;56.51
28701;BME280;15877;52.344;16.790;2023-05-23T02:56:45;100381.60;;;17.15;56.57
28701;BME280;15877;52.344;16.790;2023-05-23T02:59:17;100369.46;;;17.07;56.91
28701;BME280;15877;52.344;16.790;2023-05-23T03:01:50;100370.27;;;17.07;57.00
28701;BME280;15877;52.344;16.790;2023-05-23T03:04:22;100372.14;;;17.14;56.65
28701;BME280;15877;52.344;16.790;2023-05-23T03:06:54;100369.26;;;17.12;56.99
28701;BME280;15877;52.344;16.790;2023-05-23T03:09:29;100369.27;;;17.11;56.92
28701;BME280;15877;52.344;16.790;2023-05-23T03:12:02;100368.57;;;17.09;57.11
28701;BME280;15877;52.344;16.790;2023-05-23T03:14:35;100364.24;;;17.08;57.26
28701;BME280;15877;52.344;16.790;2023-05-23T03:17:07;100368.89;;;17.07;56.92
28701;BME280;15877;52.344;16.790;2023-05-23T03:19:39;100364.89;;;17.07;57.05
28701;BME280;15877;52.344;16.790;2023-05-23T03:22:12;100373.88;;;17.05;57.07
28701;BME280;15877;52.344;16.790;2023-05-23T03:24:45;100370.91;;;17.05;57.17
28701;BME280;15877;52.344;16.790;2023-05-23T03:27:17;100366.73;;;17.05;57.16
28701;BME280;15877;52.344;16.790;2023-05-23T03:29:49;100368.20;;;17.03;57.46
28701;BME280;15877;52.344;16.790;2023-05-23T03:32:21;100368.60;;;17.05;57.63
28701;BME280;15877;52.344;16.790;2023-05-23T03:34:54;100366.11;;;17.03;57.43
28701;BME280;15877;52.344;16.790;2023-05-23T03:37:26;100356.92;;;16.96;58.01
28701;BME280;15877;52.344;16.790;2023-05-23T03:39:59;100363.38;;;17.04;57.81
28701;BME280;15877;52.344;16.790;2023-05-23T03:42:34;100358.10;;;17.03;57.74
28701;BME280;15877;52.344;16.790;2023-05-23T03:45:09;100361.61;;;17.04;57.87
28701;BME280;15877;52.344;16.790;2023-05-23T03:47:41;100357.59;;;17.05;57.87
28701;BME280;15877;52.344;16.790;2023-05-23T03:50:14;100363.60;;;17.06;58.07
28701;BME280;15877;52.344;16.790;2023-05-23T03:52:47;100352.19;;;16.98;58.12
28701;BME280;15877;52.344;16.790;2023-05-23T03:55:20;100364.81;;;17.05;58.34
28701;BME280;15877;52.344;16.790;2023-05-23T03:57:54;100361.60;;;17.07;58.76
28701;BME280;15877;52.344;16.790;2023-05-23T04:00:26;100362.48;;;17.09;58.62
28701;BME280;15877;52.344;16.790;2023-05-23T04:03:00;100346.30;;;17.05;58.64
28701;BME280;15877;52.344;16.790;2023-05-23T04:05:33;100357.80;;;17.13;58.44
28701;BME280;15877;52.344;16.790;2023-05-23T04:08:06;100355.88;;;17.15;58.77
28701;BME280;15877;52.344;16.790;2023-05-23T04:10:39;100357.78;;;17.17;58.80
28701;BME280;15877;52.344;16.790;2023-05-23T04:13:12;100357.59;;;17.20;59.10
28701;BME280;15877;52.344;16.790;2023-05-23T04:15:45;100357.11;;;17.22;59.05
28701;BME280;15877;52.344;16.790;2023-05-23T04:18:20;100359.02;;;17.26;59.42
28701;BME280;15877;52.344;16.790;2023-05-23T04:20:53;100359.94;;;17.31;59.13
28701;BME280;15877;52.344;16.790;2023-05-23T04:23:25;100356.30;;;17.35;59.02
28701;BME280;15877;52.344;16.790;2023-05-23T04:25:59;100357.86;;;17.38;59.04
28701;BME280;15877;52.344;16.790;2023-05-23T04:28:38;100350.23;;;17.42;59.93
28701;BME280;15877;52.344;16.790;2023-05-23T04:31:10;100349.27;;;17.47;59.34
28701;BME280;15877;52.344;16.790;2023-05-23T04:33:44;100345.08;;;17.46;59.59
28701;BME280;15877;52.344;16.790;2023-05-23T04:36:22;100344.74;;;17.50;59.03
28701;BME280;15877;52.344;16.790;2023-05-23T04:38:57;100343.25;;;17.56;59.38
28701;BME280;15877;52.344;16.790;2023-05-23T04:41:31;100348.98;;;17.64;59.28
28701;BME280;15877;52.344;16.790;2023-05-23T04:44:11;100345.01;;;17.68;59.54
28701;BME280;15877;52.344;16.790;2023-05-23T04:47:03;100340.36;;;17.74;59.40
28701;BME280;15877;52.344;16.790;2023-05-23T04:50:02;100344.98;;;17.80;59.69
28701;BME280;15877;52.344;16.790;2023-05-23T04:52:35;100341.89;;;17.84;59.90
28701;BME280;15877;52.344;16.790;2023-05-23T04:55:08;100340.80;;;17.89;60.00
28701;BME280;15877;52.344;16.790;2023-05-23T04:57:41;100338.84;;;17.93;59.24
28701;BME280;15877;52.344;16.790;2023-05-23T05:00:16;100338.81;;;17.95;59.72
28701;BME280;15877;52.344;16.790;2023-05-23T05:02:48;100340.30;;;18.00;59.93
28701;BME280;15877;52.344;16.790;2023-05-23T05:05:21;100339.30;;;18.02;59.86
28701;BME280;15877;52.344;16.790;2023-05-23T05:07:53;100332.45;;;18.05;59.38
28701;BME280;15877;52.344;16.790;2023-05-23T05:10:26;100330.13;;;18.12;59.85
28701;BME280;15877;52.344;16.790;2023-05-23T05:13:00;100318.21;;;18.15;60.41
28701;BME280;15877;52.344;16.790;2023-05-23T05:15:41;100320.98;;;18.20;60.08
28701;BME280;15877;52.344;16.790;2023-05-23T05:18:14;100319.70;;;18.26;59.32
28701;BME280;15877;52.344;16.790;2023-05-23T05:20:48;100318.06;;;18.28;59.93
28701;BME280;15877;52.344;16.790;2023-05-23T05:23:24;100320.10;;;18.33;59.84
28701;BME280;15877;52.344;16.790;2023-05-23T05:25:58;100322.23;;;18.38;59.47
28701;BME280;15877;52.344;16.790;2023-05-23T05:28:31;100320.13;;;18.41;59.51
28701;BME280;15877;52.344;16.790;2023-05-23T05:31:04;100321.85;;;18.52;59.41
28701;BME280;15877;52.344;16.790;2023-05-23T05:33:38;100320.91;;;18.62;59.89
28701;BME280;15877;52.344;16.790;2023-05-23T05:36:14;100323.05;;;18.71;60.13
28701;BME280;15877;52.344;16.790;2023-05-23T05:38:48;100320.28;;;18.80;59.68
28701;BME280;15877;52.344;16.790;2023-05-23T05:41:22;100317.16;;;18.90;60.20
28701;BME280;15877;52.344;16.790;2023-05-23T05:43:57;100310.89;;;19.02;58.83
28701;BME280;15877;52.344;16.790;2023-05-23T05:46:29;100308.64;;;19.11;58.05
28701;BME280;15877;52.344;16.790;2023-05-23T05:49:02;100311.61;;;19.23;59.30
28701;BME280;15877;52.344;16.790;2023-05-23T05:51:35;100307.71;;;19.32;59.71
28701;BME280;15877;52.344;16.790;2023-05-23T05:54:08;100312.73;;;19.41;59.29
28701;BME280;15877;52.344;16.790;2023-05-23T05:56:40;100305.46;;;19.48;58.16
28701;BME280;15877;52.344;16.790;2023-05-23T05:59:13;100296.49;;;19.51;57.13
28701;BME280;15877;52.344;16.790;2023-05-23T06:01:47;100289.50;;;19.55;57.50
28701;BME280;15877;52.344;16.790;2023-05-23T06:04:21;100290.27;;;19.56;57.39
28701;BME280;15877;52.344;16.790;2023-05-23T06:06:54;100281.93;;;19.64;57.55
28701;BME280;15877;52.344;16.790;2023-05-23T06:09:27;100277.75;;;19.68;58.27
28701;BME280;15877;52.344;16.790;2023-05-23T06:12:00;100284.20;;;19.73;57.95
28701;BME280;15877;52.344;16.790;2023-05-23T06:14:33;100283.69;;;19.74;57.69
28701;BME280;15877;52.344;16.790;2023-05-23T06:17:06;100285.85;;;19.79;58.18
28701;BME280;15877;52.344;16.790;2023-05-23T06:19:39;100282.86;;;19.84;57.97
28701;BME280;15877;52.344;16.790;2023-05-23T06:22:11;100285.73;;;19.91;58.23
28701;BME280;15877;52.344;16.790;2023-05-23T06:24:44;100285.91;;;19.97;57.96
28701;BME280;15877;52.344;16.790;2023-05-23T06:27:16;100283.16;;;20.02;58.83
28701;BME280;15877;52.344;16.790;2023-05-23T06:29:49;100274.50;;;20.05;58.93
28701;BME280;15877;52.344;16.790;2023-05-23T06:32:22;100277.36;;;20.16;57.99
28701;BME280;15877;52.344;16.790;2023-05-23T06:34:54;100270.19;;;20.16;58.37
28701;BME280;15877;52.344;16.790;2023-05-23T06:37:26;100283.19;;;20.35;58.08
28701;BME280;15877;52.344;16.790;2023-05-23T06:39:59;100277.89;;;20.42;58.06
28701;BME280;15877;52.344;16.790;2023-05-23T06:42:31;100280.01;;;20.49;57.61
28701;BME280;15877;52.344;16.790;2023-05-23T06:45:25;100281.60;;;20.57;57.94
28701;BME280;15877;52.344;16.790;2023-05-23T06:47:58;100282.98;;;20.65;57.31
28701;BME280;15877;52.344;16.790;2023-05-23T06:50:31;100273.98;;;20.67;56.70
28701;BME280;15877;52.344;16.790;2023-05-23T06:53:04;100285.25;;;20.79;56.58
28701;BME280;15877;52.344;16.790;2023-05-23T06:55:37;100286.21;;;20.87;55.93
28701;BME280;15877;52.344;16.790;2023-05-23T06:58:10;100290.86;;;20.95;55.43
28701;BME280;15877;52.344;16.790;2023-05-23T07:00:42;100288.86;;;21.03;54.58
28701;BME280;15877;52.344;16.790;2023-05-23T07:03:22;100283.85;;;21.10;54.27
28701;BME280;15877;52.344;16.790;2023-05-23T07:05:56;100283.34;;;21.18;55.02
28701;BME280;15877;52.344;16.790;2023-05-23T07:08:29;100279.66;;;21.23;53.79
28701;BME280;15877;52.344;16.790;2023-05-23T07:11:02;100266.23;;;21.21;53.60
28701;BME280;15877;52.344;16.790;2023-05-23T07:13:48;100278.48;;;21.35;54.03
28701;BME280;15877;52.344;16.790;2023-05-23T07:16:25;100277.77;;;21.45;54.03
28701;BME280;15877;52.344;16.790;2023-05-23T07:19:03;100277.41;;;21.52;53.60
28701;BME280;15877;52.344;16.790;2023-05-23T07:21:39;100277.45;;;21.57;53.11
28701;BME280;15877;52.344;16.790;2023-05-23T07:24:11;100271.59;;;21.62;52.41
28701;BME280;15877;52.344;16.790;2023-05-23T07:26:43;100275.70;;;21.62;52.39
28701;BME280;15877;52.344;16.790;2023-05-23T07:29:16;100253.15;;;21.53;51.77
28701;BME280;15877;52.344;16.790;2023-05-23T07:31:49;100273.81;;;21.69;53.02
28701;BME280;15877;52.344;16.790;2023-05-23T07:34:23;100274.03;;;21.74;52.44
28701;BME280;15877;52.344;16.790;2023-05-23T07:36:58;100269.36;;;21.80;52.10
28701;BME280;15877;52.344;16.790;2023-05-23T07:39:35;100271.96;;;21.86;51.71
28701;BME280;15877;52.344;16.790;2023-05-23T07:42:08;100273.95;;;21.91;52.45
28701;BME280;15877;52.344;16.790;2023-05-23T07:44:41;100276.54;;;21.97;53.26
28701;BME280;15877;52.344;16.790;2023-05-23T07:47:14;100276.44;;;22.03;52.85
28701;BME280;15877;52.344;16.790;2023-05-23T07:49:46;100276.90;;;22.09;52.07
28701;BME280;15877;52.344;16.790;2023-05-23T07:52:19;100281.89;;;22.19;54.79
28701;BME280;15877;52.344;16.790;2023-05-23T07:54:51;100279.70;;;22.28;55.31
28701;BME280;15877;52.344;16.790;2023-05-23T07:57:24;100270.89;;;22.33;54.12
28701;BME280;15877;52.344;16.790;2023-05-23T07:59:57;100278.69;;;22.46;53.99
28701;BME280;15877;52.344;16.790;2023-05-23T08:02:30;100277.48;;;22.55;54.71
28701;BME280;15877;52.344;16.790;2023-05-23T08:05:04;100277.98;;;22.51;52.11
28701;BME280;15877;52.344;16.790;2023-05-23T08:07:39;100274.12;;;22.65;53.33
28701;BME280;15877;52.344;16.790;2023-05-23T08:10:12;100276.27;;;22.74;55.84
28701;BME280;15877;52.344;16.790;2023-05-23T08:12:45;100275.03;;;22.83;55.39
28701;BME280;15877;52.344;16.790;2023-05-23T08:15:18;100262.56;;;22.88;54.58
28701;BME280;15877;52.344;16.790;2023-05-23T08:17:56;100268.34;;;23.06;52.18
28701;BME280;15877;52.344;16.790;2023-05-23T08:20:31;100259.98;;;23.11;53.68
28701;BME280;15877;52.344;16.790;2023-05-23T08:23:03;100250.02;;;23.19;52.01
28701;BME280;15877;52.344;16.790;2023-05-23T08:25:35;100261.25;;;23.37;50.12
28701;BME280;15877;52.344;16.790;2023-05-23T08:28:09;100259.33;;;23.39;49.36
28701;BME280;15877;52.344;16.790;2023-05-23T08:30:50;100261.79;;;23.48;49.67
28701;BME280;15877;52.344;16.790;2023-05-23T08:33:24;100260.41;;;23.55;48.30
28701;BME280;15877;52.344;16.790;2023-05-23T08:35:57;100265.27;;;23.60;47.40
28701;BME280;15877;52.344;16.790;2023-05-23T08:38:29;100259.34;;;23.60;47.56
28701;BME280;15877;52.344;16.790;2023-05-23T08:41:20;100247.04;;;23.62;48.33
28701;BME280;15877;52.344;16.790;2023-05-23T08:43:56;100257.98;;;23.78;47.21
28701;BME280;15877;52.344;16.790;2023-05-23T08:46:32;100256.66;;;23.79;47.29
28701;BME280;15877;52.344;16.790;2023-05-23T08:49:05;100256.39;;;23.78;46.17
28701;BME280;15877;52.344;16.790;2023-05-23T08:51:43;100258.10;;;23.78;46.09
28701;BME280;15877;52.344;16.790;2023-05-23T08:54:19;100263.10;;;23.74;46.32
28701;BME280;15877;52.344;16.790;2023-05-23T08:56:52;100261.39;;;23.76;46.19
28701;BME280;15877;52.344;16.790;2023-05-23T08:59:26;100264.54;;;23.79;46.82
28701;BME280;15877;52.344;16.790;2023-05-23T09:01:58;100262.27;;;23.79;46.87
28701;BME280;15877;52.344;16.790;2023-05-23T09:04:32;100262.09;;;23.79;45.99
28701;BME280;15877;52.344;16.790;2023-05-23T09:07:10;100261.46;;;23.81;46.56
28701;BME280;15877;52.344;16.790;2023-05-23T09:09:43;100255.54;;;23.85;47.86
28701;BME280;15877;52.344;16.790;2023-05-23T09:12:16;100253.67;;;23.90;47.53
28701;BME280;15877;52.344;16.790;2023-05-23T09:14:52;100247.39;;;23.93;48.21
28701;BME280;15877;52.344;16.790;2023-05-23T09:17:25;100245.55;;;23.98;46.00
28701;BME280;15877;52.344;16.790;2023-05-23T09:19:58;100247.80;;;23.98;45.86
28701;BME280;15877;52.344;16.790;2023-05-23T09:22:46;100243.95;;;24.00;44.75
28701;BME280;15877;52.344;16.790;2023-05-23T09:25:19;100244.83;;;24.03;43.96
28701;BME280;15877;52.344;16.790;2023-05-23T09:27:52;100235.70;;;24.00;45.55
28701;BME280;15877;52.344;16.790;2023-05-23T09:30:27;100241.75;;;24.07;46.29
28701;BME280;15877;52.344;16.790;2023-05-23T09:33:00;100240.68;;;24.17;45.45
28701;BME280;15877;52.344;16.790;2023-05-23T09:35:37;100238.71;;;24.26;45.50
28701;BME280;15877;52.344;16.790;2023-05-23T09:38:14;100235.52;;;24.38;47.33
28701;BME280;15877;52.344;16.790;2023-05-23T09:40:46;100234.52;;;24.40;45.35
28701;BME280;15877;52.344;16.790;2023-05-23T09:43:20;100229.70;;;24.35;46.45
28701;BME280;15877;52.344;16.790;2023-05-23T09:45:55;100226.42;;;24.36;45.97
28701;BME280;15877;52.344;16.790;2023-05-23T09:48:31;100227.34;;;24.37;48.02
28701;BME280;15877;52.344;16.790;2023-05-23T09:51:10;100227.30;;;24.38;48.94
28701;BME280;15877;52.344;16.790;2023-05-23T09:53:43;100216.70;;;24.31;47.17
28701;BME280;15877;52.344;16.790;2023-05-23T09:56:16;100224.23;;;24.40;43.16
28701;BME280;15877;52.344;16.790;2023-05-23T09:58:49;100223.11;;;24.46;43.21
28701;BME280;15877;52.344;16.790;2023-05-23T10:01:23;100220.65;;;24.49;42.25
28701;BME280;15877;52.344;16.790;2023-05-23T10:03:57;100224.67;;;24.54;43.76
28701;BME280;15877;52.344;16.790;2023-05-23T10:06:34;100215.64;;;24.48;43.14
28701;BME280;15877;52.344;16.790;2023-05-23T10:09:14;100222.35;;;24.61;42.45
28701;BME280;15877;52.344;16.790;2023-05-23T10:12:32;100220.38;;;24.64;44.75
28701;BME280;15877;52.344;16.790;2023-05-23T10:15:14;100218.61;;;24.68;43.72
28701;BME280;15877;52.344;16.790;2023-05-23T10:18:05;100217.05;;;24.73;44.85
28701;BME280;15877;52.344;16.790;2023-05-23T10:20:40;100217.22;;;24.75;43.07
28701;BME280;15877;52.344;16.790;2023-05-23T10:23:15;100215.88;;;24.76;44.50
28701;BME280;15877;52.344;16.790;2023-05-23T10:25:48;100217.94;;;24.79;44.33
28701;BME280;15877;52.344;16.790;2023-05-23T10:28:22;100209.86;;;24.80;41.93
28701;BME280;15877;52.344;16.790;2023-05-23T10:30:55;100211.25;;;24.80;41.26
28701;BME280;15877;52.344;16.790;2023-05-23T10:33:28;100206.57;;;24.79;42.88
28701;BME280;15877;52.344;16.790;2023-05-23T10:36:09;100206.34;;;24.71;41.84
28701;BME280;15877;52.344;16.790;2023-05-23T10:38:48;100206.62;;;24.68;42.09
28701;BME280;15877;52.344;16.790;2023-05-23T10:41:37;100205.41;;;24.65;40.53
28701;BME280;15877;52.344;16.790;2023-05-23T10:44:15;100207.55;;;24.56;40.81
28701;BME280;15877;52.344;16.790;2023-05-23T10:46:53;100210.92;;;24.50;40.89
28701;BME280;15877;52.344;16.790;2023-05-23T10:49:40;100211.88;;;24.47;40.83
28701;BME280;15877;52.344;16.790;2023-05-23T10:52:14;100212.44;;;24.41;40.64
28701;BME280;15877;52.344;16.790;2023-05-23T10:54:50;100213.29;;;24.31;40.99
28701;BME280;15877;52.344;16.790;2023-05-23T10:57:25;100214.90;;;24.21;41.04
28701;BME280;15877;52.344;16.790;2023-05-23T10:59:59;100210.09;;;24.17;42.06
28701;BME280;15877;52.344;16.790;2023-05-23T11:02:31;100217.38;;;24.06;44.77
28701;BME280;15877;52.344;16.790;2023-05-23T11:05:21;100219.92;;;23.91;45.28
28701;BME280;15877;52.344;16.790;2023-05-23T11:08:18;100220.75;;;23.77;47.34
28701;BME280;15877;52.344;16.790;2023-05-23T11:10:57;100229.51;;;23.56;49.32
28701;BME280;15877;52.344;16.790;2023-05-23T11:13:56;100231.83;;;23.28;50.64
28701;BME280;15877;52.344;16.790;2023-05-23T11:16:38;100239.64;;;22.86;53.20
28701;BME280;15877;52.344;16.790;2023-05-23T11:19:25;100240.98;;;22.80;54.33
28701;BME280;15877;52.344;16.790;2023-05-23T11:22:00;100240.44;;;22.84;55.39
28701;BME280;15877;52.344;16.790;2023-05-23T11:24:52;100244.75;;;22.73;56.47
28701;BME280;15877;52.344;16.790;2023-05-23T11:27:29;100250.02;;;22.62;56.95
28701;BME280;15877;52.344;16.790;2023-05-23T11:30:07;100239.13;;;22.35;57.70
28701;BME280;15877;52.344;16.790;2023-05-23T11:32:46;100247.59;;;22.34;58.37
28701;BME280;15877;52.344;16.790;2023-05-23T11:35:21;100250.89;;;22.31;59.34
28701;BME280;15877;52.344;16.790;2023-05-23T11:37:57;100258.26;;;22.26;60.97
28701;BME280;15877;52.344;16.790;2023-05-23T11:40:31;100257.73;;;22.19;61.14
28701;BME280;15877;52.344;16.790;2023-05-23T11:43:05;100262.20;;;22.04;63.03
28701;BME280;15877;52.344;16.790;2023-05-23T11:45:39;100261.04;;;21.99;63.06
28701;BME280;15877;52.344;16.790;2023-05-23T11:48:13;100261.97;;;21.97;64.08
28701;BME280;15877;52.344;16.790;2023-05-23T11:50:46;100256.50;;;21.93;62.91
28701;BME280;15877;52.344;16.790;2023-05-23T11:53:21;100246.96;;;21.81;63.39
28701;BME280;15877;52.344;16.790;2023-05-23T11:55:57;100257.80;;;21.81;63.89
28701;BME280;15877;52.344;16.790;2023-05-23T11:58:32;100261.92;;;21.77;64.76
28701;BME280;15877;52.344;16.790;2023-05-23T12:01:06;100263.13;;;21.70;63.29
28701;BME280;15877;52.344;16.790;2023-05-23T12:03:47;100258.30;;;21.57;65.94
28701;BME280;15877;52.344;16.790;2023-05-23T12:06:21;100272.67;;;21.57;65.99
28701;BME280;15877;52.344;16.790;2023-05-23T12:08:54;100273.20;;;21.55;66.72
28701;BME280;15877;52.344;16.790;2023-05-23T12:11:27;100265.59;;;21.53;66.92
28701;BME280;15877;52.344;16.790;2023-05-23T12:14:02;100268.56;;;21.51;67.60
28701;BME280;15877;52.344;16.790;2023-05-23T12:16:36;100269.77;;;21.47;67.93
28701;BME280;15877;52.344;16.790;2023-05-23T12:19:09;100273.00;;;21.41;65.42
28701;BME280;15877;52.344;16.790;2023-05-23T12:21:43;100280.70;;;21.30;66.02
28701;BME280;15877;52.344;16.790;2023-05-23T12:24:19;100282.70;;;21.21;65.96
28701;BME280;15877;52.344;16.790;2023-05-23T12:26:53;100284.32;;;21.24;65.86
28701;BME280;15877;52.344;16.790;2023-05-23T12:29:30;100280.52;;;21.27;65.55
28701;BME280;15877;52.344;16.790;2023-05-23T12:32:07;100284.23;;;21.25;66.15
28701;BME280;15877;52.344;16.790;2023-05-23T12:34:42;100281.27;;;21.20;67.07
28701;BME280;15877;52.344;16.790;2023-05-23T12:37:14;100282.70;;;21.17;68.33
28701;BME280;15877;52.344;16.790;2023-05-23T12:39:50;100281.05;;;21.16;68.71
28701;BME280;15877;52.344;16.790;2023-05-23T12:42:22;100281.16;;;21.21;68.28
28701;BME280;15877;52.344;16.790;2023-05-23T12:44:55;100277.38;;;21.14;68.84
28701;BME280;15877;52.344;16.790;2023-05-23T12:47:27;100276.08;;;21.07;68.79
28701;BME280;15877;52.344;16.790;2023-05-23T12:50:00;100276.45;;;21.05;68.86
28701;BME280;15877;52.344;16.790;2023-05-23T12:52:32;100278.78;;;21.06;69.05
28701;BME280;15877;52.344;16.790;2023-05-23T12:55:07;100284.13;;;21.01;69.14
28701;BME280;15877;52.344;16.790;2023-05-23T12:57:40;100288.16;;;20.98;69.21
28701;BME280;15877;52.344;16.790;2023-05-23T13:00:16;100286.38;;;20.75;70.22
28701;BME280;15877;52.344;16.790;2023-05-23T13:02:49;100286.55;;;20.78;69.91
28701;BME280;15877;52.344;16.790;2023-05-23T13:05:22;100285.67;;;20.75;69.96
28701;BME280;15877;52.344;16.790;2023-05-23T13:07:54;100285.01;;;20.76;69.27
28701;BME280;15877;52.344;16.790;2023-05-23T13:10:29;100287.06;;;20.66;69.55
28701;BME280;15877;52.344;16.790;2023-05-23T13:13:02;100280.02;;;20.67;69.52
28701;BME280;15877;52.344;16.790;2023-05-23T13:15:34;100274.84;;;20.61;70.47
28701;BME280;15877;52.344;16.790;2023-05-23T13:18:07;100276.66;;;20.59;70.01
28701;BME280;15877;52.344;16.790;2023-05-23T13:20:39;100278.38;;;20.58;70.59